createdAt,value
2018-12-07T00:00:21.915Z,100184.41
2018-12-07T00:02:49.302Z,100171.36
2018-12-07T00:05:16.706Z,100167.67
2018-12-07T00:07:44.103Z,100174.73
2018-12-07T00:10:11.610Z,100184.74
2018-12-07T00:12:39.006Z,100181.02
2018-12-07T00:15:06.626Z,100172.58
2018-12-07T00:17:34.023Z,100160.80
2018-12-07T00:20:01.425Z,100160.27
2018-12-07T00:22:28.892Z,100160.77
2018-12-07T00:24:56.349Z,100156.09
2018-12-07T00:27:23.743Z,100154.19
2018-12-07T00:29:51.164Z,100144.78
2018-12-07T00:32:18.575Z,100152.48
2018-12-07T00:34:46.086Z,100156.45
2018-12-07T00:37:13.535Z,100153.11
2018-12-07T00:39:40.998Z,100143.34
2018-12-07T00:42:08.382Z,100138.41
2018-12-07T00:44:35.773Z,100144.78
2018-12-07T00:47:03.174Z,100139.72
2018-12-07T00:49:30.619Z,100141.15
2018-12-07T00:51:58.073Z,100135.02
2018-12-07T00:54:25.465Z,100128.40
2018-12-07T00:56:52.882Z,100129.73
2018-12-07T00:59:20.349Z,100130.56
2018-12-07T01:01:47.747Z,100121.33
2018-12-07T01:04:15.142Z,100108.30
2018-12-07T01:06:42.610Z,100117.70
2018-12-07T01:09:10.003Z,100105.89
2018-12-07T01:11:37.425Z,100107.36
2018-12-07T01:14:04.880Z,100102.06
2018-12-07T01:16:32.286Z,100101.81
2018-12-07T01:18:59.687Z,100098.82
2018-12-07T01:21:27.086Z,100095.06
2018-12-07T01:23:54.479Z,100100.11
2018-12-07T01:26:21.958Z,100104.33
2018-12-07T01:28:49.346Z,100101.81
2018-12-07T01:31:16.770Z,100092.90
2018-12-07T01:33:44.242Z,100097.38
2018-12-07T01:36:11.642Z,100091.60
2018-12-07T01:38:39.030Z,100088.34
2018-12-07T01:41:06.426Z,100087.01
2018-12-07T01:43:33.855Z,100086.42
2018-12-07T01:46:01.319Z,100087.02
2018-12-07T01:48:28.771Z,100092.55
2018-12-07T01:50:56.222Z,100087.01
2018-12-07T01:53:23.687Z,100084.25
2018-12-07T01:55:51.083Z,100083.30
2018-12-07T01:58:18.500Z,100077.77
2018-12-07T02:00:46.059Z,100078.84
2018-12-07T02:03:13.517Z,100071.39
2018-12-07T02:05:40.967Z,100072.31
2018-12-07T02:08:08.369Z,100067.75
2018-12-07T02:10:35.778Z,100067.74
2018-12-07T02:13:03.238Z,100069.31
2018-12-07T02:15:32.538Z,100067.03
2018-12-07T02:17:59.990Z,100065.23
2018-12-07T02:20:27.450Z,100071.13
2018-12-07T02:22:54.915Z,100065.23
2018-12-07T02:25:22.311Z,100064.50
2018-12-07T02:27:55.330Z,100059.31
2018-12-07T02:30:22.845Z,100062.45
2018-12-07T02:32:50.339Z,100055.59
2018-12-07T02:35:17.832Z,100055.11
2018-12-07T02:37:45.286Z,100054.16
2018-12-07T02:40:12.846Z,100055.84
2018-12-07T02:42:40.307Z,100047.30
2018-12-07T02:45:08.080Z,100056.80
2018-12-07T02:47:35.559Z,100055.10
2018-12-07T02:50:03.395Z,100040.20
2018-12-07T02:52:30.948Z,100036.47
2018-12-07T02:54:58.335Z,100037.66
2018-12-07T02:57:25.762Z,100041.87
2018-12-07T02:59:53.151Z,100037.66
2018-12-07T03:02:20.575Z,100041.52
2018-12-07T03:04:48.067Z,100033.58
2018-12-07T03:07:15.597Z,100034.16
2018-12-07T03:09:43.048Z,100028.16
2018-12-07T03:12:10.442Z,100020.47
2018-12-07T03:14:37.859Z,100019.59
2018-12-07T03:17:05.254Z,100032.84
2018-12-07T03:19:32.673Z,100024.17
2018-12-07T03:22:00.142Z,100026.23
2018-12-07T03:24:27.584Z,100017.33
2018-12-07T03:26:55.042Z,100019.60
2018-12-07T03:29:22.504Z,100022.47
2018-12-07T03:31:49.962Z,100018.96
2018-12-07T03:34:17.515Z,100017.55
2018-12-07T03:36:44.909Z,100016.35
2018-12-07T03:39:12.310Z,100012.14
2018-12-07T03:41:39.785Z,100007.22
2018-12-07T03:44:07.346Z,100003.23
2018-12-07T03:46:34.803Z,100007.09
2018-12-07T03:49:02.258Z,100004.45
2018-12-07T03:51:29.651Z,100002.16
2018-12-07T03:53:57.059Z,100000.43
2018-12-07T03:56:24.533Z,100002.51
2018-12-07T03:58:52.089Z,99994.70
2018-12-07T04:01:19.561Z,99990.49
2018-12-07T04:03:47.005Z,99987.70
2018-12-07T04:06:14.488Z,99993.95
2018-12-07T04:08:41.870Z,99988.80
2018-12-07T04:11:09.266Z,99985.98
2018-12-07T04:13:36.832Z,99981.07
2018-12-07T04:16:04.231Z,99979.88
2018-12-07T04:18:31.738Z,99975.18
2018-12-07T04:20:59.131Z,99969.51
2018-12-07T04:23:26.555Z,99969.05
2018-12-07T04:25:54.015Z,99969.40
2018-12-07T04:28:21.402Z,99968.48
2018-12-07T04:30:48.828Z,99966.02
2018-12-07T04:33:16.214Z,99975.53
2018-12-07T04:35:43.665Z,99971.08
2018-12-07T04:38:11.281Z,99965.17
2018-12-07T04:40:38.699Z,99960.49
2018-12-07T04:43:06.116Z,99965.80
2018-12-07T04:45:33.511Z,99962.55
2018-12-07T04:48:00.905Z,99966.38
2018-12-07T04:50:28.378Z,99959.77
2018-12-07T04:52:55.835Z,99962.09
2018-12-07T04:55:23.295Z,99963.13
2018-12-07T04:57:50.695Z,99959.56
2018-12-07T05:00:18.167Z,99963.77
2018-12-07T05:02:45.564Z,99958.92
2018-12-07T05:05:13.127Z,99959.30
2018-12-07T05:07:40.695Z,99956.28
2018-12-07T05:10:08.176Z,99952.56
2018-12-07T05:12:35.567Z,99954.27
2018-12-07T05:15:02.954Z,99944.61
2018-12-07T05:17:30.410Z,99936.09
2018-12-07T05:19:57.866Z,99934.63
2018-12-07T05:22:25.423Z,99932.12
2018-12-07T05:24:52.817Z,99931.03
2018-12-07T05:27:20.207Z,99929.70
2018-12-07T05:29:47.690Z,99929.02
2018-12-07T05:32:15.091Z,99935.88
2018-12-07T05:34:42.479Z,99923.08
2018-12-07T05:37:09.899Z,99927.54
2018-12-07T05:39:37.314Z,99933.30
2018-12-07T05:42:04.779Z,99924.99
2018-12-07T05:44:32.339Z,99926.13
2018-12-07T05:46:59.899Z,99915.16
2018-12-07T05:49:27.360Z,99924.20
2018-12-07T05:51:54.915Z,99923.83
2018-12-07T05:54:22.478Z,99910.59
2018-12-07T05:56:49.871Z,99907.95
2018-12-07T05:59:17.291Z,99906.23
2018-12-07T06:01:44.670Z,99902.25
2018-12-07T06:04:12.134Z,99899.66
2018-12-07T06:06:39.556Z,99905.42
2018-12-07T06:09:07.005Z,99908.77
2018-12-07T06:11:34.467Z,99900.71
2018-12-07T06:14:01.927Z,99896.63
2018-12-07T06:16:29.383Z,99902.74
2018-12-07T06:18:56.835Z,99899.02
2018-12-07T06:21:24.294Z,99892.16
2018-12-07T06:23:51.690Z,99894.92
2018-12-07T06:26:19.071Z,99896.52
2018-12-07T06:28:46.465Z,99885.55
2018-12-07T06:31:13.939Z,99887.34
2018-12-07T06:33:41.331Z,99886.52
2018-12-07T06:36:08.731Z,99880.72
2018-12-07T06:38:36.129Z,99880.27
2018-12-07T06:41:03.645Z,99873.64
2018-12-07T06:43:31.022Z,99877.23
2018-12-07T06:45:58.463Z,99867.38
2018-12-07T06:48:25.839Z,99858.48
2018-12-07T06:50:53.271Z,99855.37
2018-12-07T06:53:20.683Z,99850.17
2018-12-07T06:55:48.199Z,99854.73
2018-12-07T06:58:15.648Z,99844.88
2018-12-07T07:00:43.034Z,99846.94
2018-12-07T07:03:10.438Z,99839.58
2018-12-07T07:05:37.831Z,99842.34
2018-12-07T07:08:05.226Z,99837.08
2018-12-07T07:10:32.622Z,99840.67
2018-12-07T07:13:00.018Z,99837.30
2018-12-07T07:15:27.442Z,99840.67
2018-12-07T07:17:54.891Z,99828.89
2018-12-07T07:20:22.443Z,99825.52
2018-12-07T07:22:49.911Z,99819.27
2018-12-07T07:25:17.362Z,99830.56
2018-12-07T07:27:44.775Z,99828.03
2018-12-07T07:30:12.279Z,99814.20
2018-12-07T07:32:39.667Z,99816.51
2018-12-07T07:35:07.230Z,99807.50
2018-12-07T07:37:34.646Z,99807.03
2018-12-07T07:40:02.114Z,99800.14
2018-12-07T07:42:29.586Z,99797.38
2018-12-07T07:44:56.998Z,99799.53
2018-12-07T07:47:24.479Z,99802.30
2018-12-07T07:49:51.934Z,99792.05
2018-12-07T07:52:19.403Z,99781.96
2018-12-07T07:54:46.848Z,99779.57
2018-12-07T07:57:14.309Z,99773.72
2018-12-07T07:59:41.762Z,99768.66
2018-12-07T08:02:09.223Z,99772.01
2018-12-07T08:04:36.674Z,99763.08
2018-12-07T08:07:04.132Z,99761.61
2018-12-07T08:09:31.591Z,99758.88
2018-12-07T08:11:58.974Z,99757.31
2018-12-07T08:14:26.449Z,99752.88
2018-12-07T08:16:53.863Z,99751.70
2018-12-07T08:19:21.320Z,99752.39
2018-12-07T08:21:48.774Z,99745.55
2018-12-07T08:24:16.231Z,99744.94
2018-12-07T08:26:43.614Z,99748.19
2018-12-07T08:29:11.047Z,99740.25
2018-12-07T08:31:38.507Z,99732.63
2018-12-07T08:34:05.902Z,99728.52
2018-12-07T08:36:33.310Z,99720.50
2018-12-07T08:39:00.775Z,99727.02
2018-12-07T08:41:28.222Z,99722.16
2018-12-07T08:43:55.627Z,99717.21
2018-12-07T08:46:23.034Z,99722.39
2018-12-07T08:48:50.495Z,99718.80
2018-12-07T08:51:17.883Z,99715.55
2018-12-07T08:53:45.302Z,99715.42
2018-12-07T08:56:12.763Z,99705.33
2018-12-07T08:58:40.235Z,99716.15
2018-12-07T09:01:07.683Z,99710.73
2018-12-07T09:03:35.247Z,99700.16
2018-12-07T09:06:02.811Z,99699.40
2018-12-07T09:08:30.258Z,99693.53
2018-12-07T09:10:57.707Z,99687.26
2018-12-07T09:13:25.170Z,99689.14
2018-12-07T09:15:52.627Z,99681.14
2018-12-07T09:18:20.086Z,99681.73
2018-12-07T09:20:53.745Z,99679.55
2018-12-07T09:23:16.944Z,99669.11
2018-12-07T09:25:44.399Z,99664.91
2018-12-07T09:28:11.782Z,99662.76
2018-12-07T09:30:39.315Z,99660.79
2018-12-07T09:33:06.707Z,99657.05
2018-12-07T09:35:34.207Z,99651.03
2018-12-07T09:38:01.686Z,99651.30
2018-12-07T09:40:29.140Z,99653.12
2018-12-07T09:42:56.607Z,99644.91
2018-12-07T09:45:24.010Z,99646.84
2018-12-07T09:47:51.394Z,99647.55
2018-12-07T09:50:18.935Z,99640.30
2018-12-07T09:52:46.323Z,99639.41
2018-12-07T09:55:13.789Z,99635.94
2018-12-07T09:57:41.270Z,99631.25
2018-12-07T10:00:08.682Z,99626.48
2018-12-07T10:02:36.071Z,99617.14
2018-12-07T10:05:04.171Z,99614.05
2018-12-07T10:07:31.558Z,99608.62
2018-12-07T10:09:58.947Z,99611.77
2018-12-07T10:12:26.339Z,99597.48
2018-12-07T10:14:53.714Z,99592.97
2018-12-07T10:17:21.106Z,99587.34
2018-12-07T10:19:48.559Z,99580.71
2018-12-07T10:22:15.951Z,99572.56
2018-12-07T10:24:43.344Z,99566.27
2018-12-07T10:27:10.834Z,99571.73
2018-12-07T10:29:38.286Z,99563.62
2018-12-07T10:32:05.807Z,99555.73
2018-12-07T10:34:33.213Z,99556.44
2018-12-07T10:37:00.589Z,99551.14
2018-12-07T10:39:28.050Z,99547.56
2018-12-07T10:41:55.515Z,99543.65
2018-12-07T10:44:22.897Z,99537.38
2018-12-07T10:46:50.287Z,99529.97
2018-12-07T10:49:17.745Z,99512.66
2018-12-07T10:51:45.203Z,99510.63
2018-12-07T10:54:12.658Z,99510.91
2018-12-07T10:56:40.062Z,99503.92
2018-12-07T10:59:07.447Z,99496.44
2018-12-07T11:01:40.710Z,99491.80
2018-12-07T11:04:13.855Z,99478.84
2018-12-07T11:06:46.947Z,99468.93
2018-12-07T11:09:20.028Z,99464.30
2018-12-07T11:11:49.415Z,99464.23
2018-12-07T11:14:18.704Z,99451.17
2018-12-07T11:16:51.686Z,99451.38
2018-12-07T11:22:42.890Z,99433.44
2018-12-07T11:25:16.602Z,99423.00
2018-12-07T11:27:49.630Z,99419.46
2018-12-07T11:30:22.643Z,99414.87
2018-12-07T11:32:55.834Z,99406.66
2018-12-07T11:35:25.178Z,99404.66
2018-12-07T11:37:52.679Z,99388.68
2018-12-07T11:40:20.070Z,99387.17
2018-12-07T11:42:47.478Z,99378.86
2018-12-07T11:45:14.955Z,99376.30
2018-12-07T11:47:42.410Z,99377.77
2018-12-07T11:50:10.377Z,99360.53
2018-12-07T11:52:37.807Z,99354.27
2018-12-07T11:55:05.435Z,99348.86
2018-12-07T11:57:32.855Z,99343.66
2018-12-07T12:00:00.312Z,99333.59
2018-12-07T12:02:27.702Z,99331.97
2018-12-07T12:04:55.092Z,99323.22
2018-12-07T12:07:22.491Z,99323.84
2018-12-07T12:09:49.871Z,99321.03
2018-12-07T12:12:17.284Z,99317.61
2018-12-07T12:14:44.742Z,99322.23
2018-12-07T12:17:12.198Z,99315.37
2018-12-07T12:19:39.659Z,99309.63
2018-12-07T12:22:07.915Z,99310.88
2018-12-07T12:24:35.598Z,99303.64
2018-12-07T12:27:03.039Z,99298.34
2018-12-07T12:29:30.422Z,99295.05
2018-12-07T12:31:57.807Z,99298.67
2018-12-07T12:34:25.232Z,99282.29
2018-12-07T12:36:52.684Z,99279.52
2018-12-07T12:39:20.075Z,99274.30
2018-12-07T12:41:47.496Z,99266.00
2018-12-07T12:44:15.063Z,99263.02
2018-12-07T12:46:42.511Z,99268.31
2018-12-07T12:49:09.894Z,99262.52
2018-12-07T12:51:37.322Z,99261.98
2018-12-07T12:54:04.782Z,99250.36
2018-12-07T12:56:32.233Z,99237.41
2018-12-07T12:58:59.631Z,99237.66
2018-12-07T13:01:27.156Z,99241.38
2018-12-07T13:03:54.602Z,99244.07
2018-12-07T13:06:22.071Z,99235.30
2018-12-07T13:08:49.519Z,99224.59
2018-12-07T13:11:16.910Z,99226.95
2018-12-07T13:13:44.382Z,99212.75
2018-12-07T13:16:11.843Z,99200.90
2018-12-07T13:18:39.235Z,99199.32
2018-12-07T13:21:06.708Z,99193.13
2018-12-07T13:23:34.167Z,99184.48
2018-12-07T13:26:01.563Z,99182.88
2018-12-07T13:28:28.979Z,99167.41
2018-12-07T13:30:56.367Z,99158.30
2018-12-07T13:33:23.904Z,99155.11
2018-12-07T13:35:51.259Z,99145.65
2018-12-07T13:38:18.702Z,99136.46
2018-12-07T13:40:46.165Z,99140.33
2018-12-07T13:43:13.683Z,99141.70
2018-12-07T13:45:41.211Z,99139.45
2018-12-07T13:48:08.945Z,99133.95
2018-12-07T13:50:40.826Z,99124.71
2018-12-07T13:53:08.445Z,99102.59
2018-12-07T13:55:36.746Z,99103.91
2018-12-07T13:58:04.666Z,99098.01
2018-12-07T14:00:32.279Z,99097.02
2018-12-07T14:03:00.019Z,99083.27
2018-12-07T14:05:32.258Z,99079.37
2018-12-07T14:07:57.044Z,99072.58
2018-12-07T14:10:24.652Z,99073.38
2018-12-07T14:12:52.214Z,99071.80
2018-12-07T14:15:19.904Z,99079.59
2018-12-07T14:17:47.540Z,99073.89
2018-12-07T14:20:15.258Z,99069.03
2018-12-07T14:22:42.674Z,99063.09
2018-12-07T14:25:10.191Z,99063.80
2018-12-07T14:27:37.842Z,99054.12
2018-12-07T14:30:06.980Z,99048.00
2018-12-07T14:32:34.553Z,99045.48
2018-12-07T14:35:02.162Z,99038.44
2018-12-07T14:37:29.866Z,99032.22
2018-12-07T14:39:57.443Z,99032.81
2018-12-07T14:42:25.039Z,99039.13
2018-12-07T14:44:52.451Z,99021.47
2018-12-07T14:47:20.048Z,99017.33
2018-12-07T14:49:47.736Z,99008.16
2018-12-07T14:52:15.434Z,99007.03
2018-12-07T14:54:43.064Z,98996.28
2018-12-07T14:57:10.682Z,98995.81
2018-12-07T14:59:38.299Z,98992.07
2018-12-07T15:02:06.200Z,98992.17
2018-12-07T15:04:33.738Z,98991.02
2018-12-07T15:07:01.303Z,98982.13
2018-12-07T15:09:28.910Z,98974.31
2018-12-07T15:11:56.528Z,98963.23
2018-12-07T15:14:24.062Z,98956.10
2018-12-07T15:16:51.507Z,98951.66
2018-12-07T15:19:19.202Z,98939.44
2018-12-07T15:21:46.908Z,98938.59
2018-12-07T15:24:14.421Z,98938.89
2018-12-07T15:26:42.010Z,98922.56
2018-12-07T15:29:09.723Z,98923.25
2018-12-07T15:31:37.434Z,98919.66
2018-12-07T15:34:04.885Z,98920.23
2018-12-07T15:36:32.560Z,98912.49
2018-12-07T15:39:00.101Z,98904.52
2018-12-07T15:41:27.746Z,98902.70
2018-12-07T15:43:55.421Z,98901.33
2018-12-07T15:46:23.546Z,98901.77
2018-12-07T15:48:51.268Z,98889.47
2018-12-07T15:51:18.718Z,98889.84
2018-12-07T15:53:46.298Z,98888.06
2018-12-07T15:56:13.874Z,98883.23
2018-12-07T15:58:41.281Z,98887.13
2018-12-07T16:01:08.974Z,98880.72
2018-12-07T16:03:36.587Z,98874.66
2018-12-07T16:06:04.002Z,98869.14
2018-12-07T16:08:31.501Z,98852.14
2018-12-07T16:10:58.961Z,98854.80
2018-12-07T16:13:26.625Z,98852.09
2018-12-07T16:15:54.201Z,98848.69
2018-12-07T16:18:21.747Z,98843.62
2018-12-07T16:20:49.214Z,98842.89
2018-12-07T16:23:16.676Z,98843.31
2018-12-07T16:25:44.335Z,98839.25
2018-12-07T16:28:11.828Z,98831.92
2018-12-07T16:30:39.565Z,98822.27
2018-12-07T16:33:07.328Z,98816.73
2018-12-07T16:35:35.014Z,98819.13
2018-12-07T16:38:02.541Z,98809.45
2018-12-07T16:40:30.211Z,98795.95
2018-12-07T16:42:57.887Z,98807.72
2018-12-07T16:45:25.413Z,98796.14
2018-12-07T16:47:53.125Z,98803.37
2018-12-07T16:50:20.665Z,98796.78
2018-12-07T16:52:48.293Z,98783.52
2018-12-07T16:55:16.136Z,98793.03
2018-12-07T16:57:43.667Z,98776.11
2018-12-07T17:00:11.373Z,98772.00
2018-12-07T17:02:39.159Z,98769.05
2018-12-07T17:05:07.789Z,98748.45
2018-12-07T17:07:35.270Z,98743.41
2018-12-07T17:10:03.778Z,98744.65
2018-12-07T17:12:31.392Z,98732.61
2018-12-07T17:14:59.023Z,98727.26
2018-12-07T17:17:26.833Z,98723.88
2018-12-07T17:19:54.408Z,98719.39
2018-12-07T17:22:21.957Z,98715.12
2018-12-07T17:24:49.725Z,98713.59
2018-12-07T17:27:18.117Z,98709.84
2018-12-07T17:29:45.882Z,98702.83
2018-12-07T17:32:13.431Z,98702.97
2018-12-07T17:34:40.850Z,98698.16
2018-12-07T17:37:08.528Z,98698.72
2018-12-07T17:39:36.284Z,98690.98
2018-12-07T17:42:03.959Z,98679.01
2018-12-07T17:44:31.551Z,98678.38
2018-12-07T17:46:59.009Z,98669.62
2018-12-07T17:49:26.489Z,98669.51
2018-12-07T17:51:54.060Z,98657.36
2018-12-07T17:54:21.727Z,98648.94
2018-12-07T17:56:49.418Z,98648.11
2018-12-07T17:59:17.183Z,98645.86
2018-12-07T18:01:44.675Z,98640.23
2018-12-07T18:04:12.847Z,98636.91
2018-12-07T18:06:40.334Z,98646.13
2018-12-07T18:09:07.874Z,98642.16
2018-12-07T18:11:35.628Z,98630.16
2018-12-07T18:14:03.512Z,98630.11
2018-12-07T18:16:31.383Z,98628.65
2018-12-07T18:18:58.895Z,98619.92
2018-12-07T18:21:26.583Z,98616.31
2018-12-07T18:23:54.178Z,98601.92
2018-12-07T18:26:21.630Z,98598.95
2018-12-07T18:28:49.395Z,98594.91
2018-12-07T18:31:16.969Z,98592.84
2018-12-07T18:33:44.575Z,98599.69
2018-12-07T18:36:12.241Z,98583.78
2018-12-07T18:38:39.866Z,98577.11
2018-12-07T18:41:07.298Z,98576.72
2018-12-07T18:43:34.799Z,98568.13
2018-12-07T18:46:02.438Z,98565.03
2018-12-07T18:48:29.946Z,98562.70
2018-12-07T18:50:57.541Z,98559.23
2018-12-07T18:53:24.982Z,98560.94
2018-12-07T18:55:52.580Z,98555.66
2018-12-07T18:58:20.309Z,98554.97
2018-12-07T19:00:48.174Z,98540.98
2018-12-07T19:03:15.751Z,98533.83
2018-12-07T19:05:43.342Z,98540.11
2018-12-07T19:08:11.282Z,98532.05
2018-12-07T19:10:39.094Z,98531.67
2018-12-07T19:13:06.595Z,98522.67
2018-12-07T19:15:34.207Z,98526.33
2018-12-07T19:18:01.671Z,98523.31
2018-12-07T19:20:29.214Z,98528.70
2018-12-07T19:22:57.097Z,98521.14
2018-12-07T19:25:24.777Z,98527.63
2018-12-07T19:27:52.537Z,98527.44
2018-12-07T19:30:20.113Z,98528.70
2018-12-07T19:32:48.022Z,98533.16
2018-12-07T19:35:15.850Z,98533.41
2018-12-07T19:37:43.524Z,98534.97
2018-12-07T19:40:11.051Z,98528.18
2018-12-07T19:42:38.506Z,98536.13
2018-12-07T19:45:07.865Z,98538.37
2018-12-07T19:47:35.352Z,98536.87
2018-12-07T19:50:03.755Z,98524.66
2018-12-07T19:52:31.768Z,98535.52
2018-12-07T19:54:59.433Z,98525.78
2018-12-07T19:57:26.866Z,98533.89
2018-12-07T19:59:54.503Z,98535.66
2018-12-07T20:02:22.004Z,98529.59
2018-12-07T20:04:49.679Z,98591.92
2018-12-07T20:07:17.235Z,98586.89
2018-12-07T20:09:44.666Z,98602.23
2018-12-07T20:12:12.127Z,98604.05
2018-12-07T20:14:39.583Z,98614.73
2018-12-07T20:17:07.006Z,98608.30
2018-12-07T20:19:34.658Z,98624.91
2018-12-07T20:22:02.297Z,98632.30
2018-12-07T20:24:29.799Z,98643.67
2018-12-07T20:26:57.775Z,98642.75
2018-12-07T20:29:25.791Z,98651.63
2018-12-07T20:31:53.304Z,98661.20
2018-12-07T20:34:20.763Z,98665.22
2018-12-07T20:36:48.188Z,98673.33
2018-12-07T20:39:15.756Z,98677.22
2018-12-07T20:41:43.275Z,98689.29
2018-12-07T20:44:10.940Z,98688.65
2018-12-07T20:46:38.379Z,98696.02
2018-12-07T20:49:05.899Z,98688.34
2018-12-07T20:51:33.767Z,98698.04
2018-12-07T20:54:01.223Z,98704.09
2018-12-07T20:56:28.771Z,98719.11
2018-12-07T20:58:56.377Z,98725.42
2018-12-07T21:01:24.065Z,98732.82
2018-12-07T21:04:03.973Z,98747.81
2018-12-07T21:13:30.213Z,98792.88
2018-12-07T21:15:59.103Z,98785.50
2018-12-07T21:18:26.607Z,98799.12
2018-12-07T21:20:54.384Z,98814.39
2018-12-07T21:23:21.955Z,98822.09
2018-12-07T21:25:49.344Z,98818.25
2018-12-07T21:28:16.817Z,98828.52
2018-12-07T21:30:47.697Z,98847.05
2018-12-07T21:33:16.178Z,98856.97
2018-12-07T21:35:47.791Z,98865.31
2018-12-07T21:38:15.171Z,98863.28
2018-12-07T21:40:42.569Z,98877.62
2018-12-07T21:43:10.010Z,98878.23
2018-12-07T21:45:37.683Z,98878.70
2018-12-07T21:48:23.000Z,98880.01
2018-12-07T21:50:55.934Z,98887.54
2018-12-07T21:53:23.573Z,98892.31
2018-12-07T21:55:51.123Z,98889.56
2018-12-07T21:58:18.847Z,98893.88
2018-12-07T22:00:46.433Z,98896.84
2018-12-07T22:03:14.028Z,98899.94
2018-12-07T22:05:41.536Z,98902.58
2018-12-07T22:08:09.337Z,98906.52
2018-12-07T22:10:36.957Z,98898.89
2018-12-07T22:13:04.667Z,98896.39
2018-12-07T22:15:32.293Z,98909.16
2018-12-07T22:17:59.916Z,98918.37
2018-12-07T22:20:27.407Z,98925.54
2018-12-07T22:22:54.811Z,98929.93
2018-12-07T22:25:22.508Z,98941.19
2018-12-07T22:27:50.172Z,98951.92
2018-12-07T22:30:17.825Z,98954.06
2018-12-07T22:32:45.521Z,98974.02
2018-12-07T22:35:12.954Z,98976.30
2018-12-07T22:37:40.509Z,98981.80
2018-12-07T22:40:07.974Z,99002.78
2018-12-07T22:42:35.718Z,98991.44
2018-12-07T22:45:03.347Z,99006.36
2018-12-07T22:47:31.118Z,99013.77
2018-12-07T22:49:58.627Z,99013.91
2018-12-07T22:52:26.015Z,99011.81
2018-12-07T22:54:53.406Z,99006.36
2018-12-07T22:57:20.790Z,99017.16
2018-12-07T22:59:48.270Z,99011.33
2018-12-07T23:02:16.163Z,99020.43
2018-12-07T23:04:43.635Z,99016.83
2018-12-07T23:07:11.030Z,99024.21
2018-12-07T23:09:38.414Z,99033.70
2018-12-07T23:12:05.856Z,99045.38
2018-12-07T23:14:33.338Z,99050.53
2018-12-07T23:17:00.759Z,99048.73
2018-12-07T23:19:28.143Z,99045.28
2018-12-07T23:21:55.577Z,99052.78
2018-12-07T23:24:22.946Z,99055.13
2018-12-07T23:26:50.339Z,99059.67
2018-12-07T23:29:20.910Z,99072.70
2018-12-07T23:31:48.305Z,99078.89
2018-12-07T23:34:15.700Z,99077.69
2018-12-07T23:36:43.174Z,99084.26
2018-12-07T23:39:10.577Z,99082.38
2018-12-07T23:41:38.114Z,99086.92
2018-12-07T23:44:05.503Z,99085.90
2018-12-07T23:46:32.913Z,99081.73
2018-12-07T23:49:00.378Z,99078.10
2018-12-07T23:51:27.762Z,99076.13
2018-12-07T23:53:55.174Z,99082.52
2018-12-07T23:56:22.559Z,99087.14
2018-12-07T23:58:49.996Z,99085.05
